Time;durP1;ratioP1;P1;durP2;ratioP2;P2;SDS_P1;SDS_P2;PMS_P1;PMS_P2;Temp;Humidity;BMP_temperature;BMP_pressure;BME280_temperature;BME280_humidity;BME280_pressure;Samples;Min_cycle;Max_cycle;Signal;HPM_P1;HPM_P2
2021/12/14 00:02:12;;;;;;;;;;;21.20;49.20;;;;;;6237572;28;20070;-42
2021/12/14 00:05:16;;;;;;;;;;;21.30;49.40;;;;;;6219527;28;21575;-40
2021/12/14 00:08:18;;;;;;;;;;;21.30;49.30;;;;;;6236825;28;20042;-40
2021/12/14 00:11:34;;;;;;;;;;;21.40;49.30;;;;;;6237995;28;20078;-40
2021/12/14 00:17:55;;;;;;;;;;;21.20;49.20;;;;;;6236694;28;19928;-40
2021/12/14 00:21:00;;;;;;;;;;;21.10;49.20;;;;;;6219174;28;20043;-43
2021/12/14 00:24:06;;;;;;;;;;;21.30;49.40;;;;;;6241712;28;20035;-41
2021/12/14 00:27:07;;;;;;;;;;;21.90;49.60;;;;;;6236057;28;20767;-40
2021/12/14 00:30:10;;;;;;;;;;;21.20;49.20;;;;;;6233134;28;19990;-43
2021/12/14 00:33:14;;;;;;;;;;;21.10;49.40;;;;;;6232354;28;19935;-41
2021/12/14 00:36:16;;;;;;;;;;;21.40;49.20;;;;;;6235152;28;20048;-40
2021/12/14 00:39:18;;;;;;;;;;;21.20;49.30;;;;;;6239860;28;19929;-40
2021/12/14 00:42:20;;;;;;;;;;;21.50;49.40;;;;;;6238583;28;19986;-40
2021/12/14 00:45:22;;;;;;;;;;;21.40;49.40;;;;;;6238637;28;19928;-42
2021/12/14 00:48:23;;;;;;;;;;;21.20;49.40;;;;;;6220606;28;20439;-40
2021/12/14 00:51:28;;;;;;;;;;;21.20;49.30;;;;;;6236187;28;20801;-40
2021/12/14 00:54:29;;;;;;;;;;;21.50;49.50;;;;;;6218216;28;19928;-40
2021/12/14 00:57:31;;;;;;;;;;;21.60;49.00;;;;;;6227649;28;19935;-40
2021/12/14 01:00:35;;;;;;;;;;;21.60;49.50;;;;;;6234360;28;19928;-41
2021/12/14 01:03:38;;;;;;;;;;;21.10;49.30;;;;;;6234939;28;19935;-40
2021/12/14 01:06:45;;;;;;;;;;;21.20;49.20;;;;;;6216467;28;20983;-41
2021/12/14 01:09:50;;;;;;;;;;;21.10;49.20;;;;;;6218731;28;19935;-40
2021/12/14 01:12:56;;;;;;;;;;;21.00;49.10;;;;;;6230180;28;19936;-41
2021/12/14 01:16:13;;;;;;;;;;;21.50;49.50;;;;;;6235456;28;19935;-41
2021/12/14 01:19:19;;;;;;;;;;;20.90;49.20;;;;;;6220722;28;20871;-41
2021/12/14 01:22:37;;;;;;;;;;;21.60;49.50;;;;;;6220855;28;19975;-41
2021/12/14 01:25:39;;;;;;;;;;;21.10;49.30;;;;;;6225162;28;19924;-45
2021/12/14 01:28:43;;;;;;;;;;;21.50;49.50;;;;;;6240250;28;20363;-41
2021/12/14 01:31:47;;;;;;;;;;;21.20;49.20;;;;;;6239529;28;19940;-42
2021/12/14 01:34:49;;;;;;;;;;;21.50;49.40;;;;;;6239006;28;19964;-40
2021/12/14 01:38:01;;;;;;;;;;;21.20;49.30;;;;;;6242226;28;19928;-42
2021/12/14 01:41:06;;;;;;;;;;;21.00;49.20;;;;;;6238953;28;19935;-41
2021/12/14 01:44:10;;;;;;;;;;;21.50;49.40;;;;;;6236867;28;20490;-42
2021/12/14 01:47:19;;;;;;;;;;;21.10;49.30;;;;;;6237127;28;20763;-41
2021/12/14 01:50:31;;;;;;;;;;;21.30;49.20;;;;;;6221785;28;21073;-42
2021/12/14 01:53:46;;;;;;;;;;;21.80;49.40;;;;;;6235624;28;21824;-40
2021/12/14 01:56:48;;;;;;;;;;;21.30;49.30;;;;;;6210642;28;19929;-41
2021/12/14 01:59:55;;;;;;;;;;;21.60;49.20;;;;;;6241127;28;19924;-40
2021/12/14 02:02:56;;;;;;;;;;;21.10;49.10;;;;;;6247807;28;19929;-41
2021/12/14 02:05:57;;;;;;;;;;;21.10;49.90;;;;;;6245155;28;20005;-41
2021/12/14 02:09:01;;;;;;;;;;;21.20;49.30;;;;;;6248869;28;20665;-42
2021/12/14 02:12:08;;;;;;;;;;;21.00;49.10;;;;;;6224485;28;19924;-42
2021/12/14 02:15:12;;;;;;;;;;;21.30;49.20;;;;;;6238971;28;19928;-40
2021/12/14 02:18:17;;;;;;;;;;;21.00;49.00;;;;;;6238584;28;20190;-43
2021/12/14 02:21:19;;;;;;;;;;;21.40;49.30;;;;;;6235508;28;20363;-40
2021/12/14 02:24:22;;;;;;;;;;;21.40;49.30;;;;;;6233243;28;20254;-40
2021/12/14 02:27:34;;;;;;;;;;;21.50;49.30;;;;;;6220369;28;19924;-40
2021/12/14 02:30:37;;;;;;;;;;;21.70;49.40;;;;;;6236169;28;20609;-41
2021/12/14 02:33:39;;;;;;;;;;;21.30;49.20;;;;;;6233255;28;19974;-40
2021/12/14 02:36:44;;;;;;;;;;;21.10;49.10;;;;;;6230964;28;19954;-41
2021/12/14 02:40:00;;;;;;;;;;;20.90;49.10;;;;;;6234786;28;20158;-40
2021/12/14 02:43:03;;;;;;;;;;;21.40;48.70;;;;;;6235337;28;19924;-43
2021/12/14 02:46:12;;;;;;;;;;;21.10;49.00;;;;;;6217674;28;20552;-40
2021/12/14 02:49:17;;;;;;;;;;;21.50;49.30;;;;;;6232028;28;20493;-42
2021/12/14 02:52:30;;;;;;;;;;;21.20;49.20;;;;;;6229218;28;19928;-40
2021/12/14 02:55:31;;;;;;;;;;;20.90;49.10;;;;;;6230875;28;19932;-40
2021/12/14 02:58:33;;;;;;;;;;;21.40;49.30;;;;;;6231147;28;20722;-40
2021/12/14 03:01:35;;;;;;;;;;;21.40;49.40;;;;;;6232365;28;19939;-40
2021/12/14 03:04:38;;;;;;;;;;;21.40;49.20;;;;;;6234338;28;19951;-40
2021/12/14 03:07:43;;;;;;;;;;;21.60;49.40;;;;;;6230443;28;19987;-41
2021/12/14 03:10:57;;;;;;;;;;;21.30;49.30;;;;;;6213019;28;20158;-40
2021/12/14 03:13:58;;;;;;;;;;;21.30;49.30;;;;;;6231416;28;20033;-41
2021/12/14 03:17:00;;;;;;;;;;;21.00;49.30;;;;;;6233326;28;20039;-41
2021/12/14 03:20:07;;;;;;;;;;;21.00;49.00;;;;;;6233286;28;19967;-42
2021/12/14 03:23:13;;;;;;;;;;;21.00;49.00;;;;;;6231292;28;20047;-40
2021/12/14 03:26:16;;;;;;;;;;;21.00;49.10;;;;;;6238532;28;20465;-40
2021/12/14 03:29:21;;;;;;;;;;;21.50;49.20;;;;;;6234515;28;20196;-40
2021/12/14 03:32:22;;;;;;;;;;;21.60;49.30;;;;;;6238218;28;21024;-40
2021/12/14 03:35:33;;;;;;;;;;;21.30;49.10;;;;;;6244760;28;19963;-40
2021/12/14 03:38:37;;;;;;;;;;;21.00;49.10;;;;;;6244449;28;19926;-40
2021/12/14 03:41:41;;;;;;;;;;;21.40;49.30;;;;;;6251023;28;20378;-41
2021/12/14 03:44:45;;;;;;;;;;;21.10;49.00;;;;;;6244357;28;19984;-40
2021/12/14 03:47:51;;;;;;;;;;;20.80;48.90;;;;;;6226220;28;19924;-41
2021/12/14 03:50:54;;;;;;;;;;;21.40;49.20;;;;;;6239973;28;20780;-40
2021/12/14 03:53:58;;;;;;;;;;;21.20;49.10;;;;;;6240157;28;19931;-41
2021/12/14 03:57:00;;;;;;;;;;;20.90;49.00;;;;;;6233583;28;20587;-41
2021/12/14 04:00:04;;;;;;;;;;;21.30;49.20;;;;;;6231858;28;20058;-41
2021/12/14 04:03:11;;;;;;;;;;;21.40;49.20;;;;;;6233970;28;19956;-41
2021/12/14 04:06:24;;;;;;;;;;;21.00;49.20;;;;;;6208307;28;19986;-41
2021/12/14 04:09:28;;;;;;;;;;;21.10;49.10;;;;;;6229180;28;19967;-40
2021/12/14 04:12:29;;;;;;;;;;;21.70;49.50;;;;;;6237718;28;20002;-40
2021/12/14 04:15:31;;;;;;;;;;;20.90;49.20;;;;;;6242621;28;19924;-39
2021/12/14 04:18:32;;;;;;;;;;;21.10;49.20;;;;;;6224459;28;19931;-41
2021/12/14 04:21:35;;;;;;;;;;;20.90;49.00;;;;;;6232849;28;20245;-43
2021/12/14 04:24:39;;;;;;;;;;;21.30;49.20;;;;;;6225958;28;20197;-40
2021/12/14 04:27:42;;;;;;;;;;;21.40;49.20;;;;;;6228376;28;19950;-40
2021/12/14 04:30:45;;;;;;;;;;;21.00;49.20;;;;;;6244774;28;19928;-41
2021/12/14 04:33:49;;;;;;;;;;;20.90;49.00;;;;;;6244361;28;19972;-40
2021/12/14 04:36:53;;;;;;;;;;;20.80;49.50;;;;;;6221569;28;20024;-41
2021/12/14 04:40:10;;;;;;;;;;;21.00;49.20;;;;;;6238922;28;20815;-40
2021/12/14 04:53:04;;;;;;;;;;;20.90;49.10;;;;;;6241106;28;19931;-41
2021/12/14 04:56:08;;;;;;;;;;;20.70;49.00;;;;;;6235717;28;20042;-40
2021/12/14 04:59:11;;;;;;;;;;;21.20;49.20;;;;;;6249910;28;19920;-40
2021/12/14 05:02:14;;;;;;;;;;;21.00;49.10;;;;;;6219305;28;20251;-39
2021/12/14 05:05:33;;;;;;;;;;;20.90;49.10;;;;;;6236798;28;19924;-42
2021/12/14 05:11:49;;;;;;;;;;;20.90;49.10;;;;;;6240449;28;19920;-39
2021/12/14 05:14:51;;;;;;;;;;;21.10;49.20;;;;;;6241354;28;20830;-41
2021/12/14 05:17:53;;;;;;;;;;;21.00;49.20;;;;;;6238899;28;19958;-40
2021/12/14 05:20:55;;;;;;;;;;;20.80;49.20;;;;;;6238414;28;19973;-40
2021/12/14 05:23:58;;;;;;;;;;;20.90;49.00;;;;;;6211066;28;20439;-40
2021/12/14 05:27:04;;;;;;;;;;;21.30;49.30;;;;;;6228379;28;19933;-40
2021/12/14 05:30:12;;;;;;;;;;;21.40;49.30;;;;;;6210212;28;19924;-40
2021/12/14 05:33:28;;;;;;;;;;;21.00;49.20;;;;;;6223506;28;20108;-40
2021/12/14 05:36:32;;;;;;;;;;;21.00;49.10;;;;;;6208244;28;20674;-40
2021/12/14 05:39:48;;;;;;;;;;;21.20;49.40;;;;;;6240792;28;19975;-40
2021/12/14 05:46:19;;;;;;;;;;;21.00;49.10;;;;;;6249899;28;19934;-41
2021/12/14 05:49:38;;;;;;;;;;;21.40;48.70;;;;;;6224119;28;19924;-42
2021/12/14 05:52:40;;;;;;;;;;;21.00;49.00;;;;;;6240775;28;20047;-40
2021/12/14 05:55:48;;;;;;;;;;;20.80;49.10;;;;;;6239754;28;20010;-40
2021/12/14 05:58:51;;;;;;;;;;;20.80;49.00;;;;;;6216436;28;19928;-40
2021/12/14 06:01:53;;;;;;;;;;;21.60;49.50;;;;;;6235939;28;19991;-41
2021/12/14 06:04:55;;;;;;;;;;;21.10;49.20;;;;;;6234580;28;20737;-41
2021/12/14 06:07:58;;;;;;;;;;;21.40;49.40;;;;;;6233296;28;20026;-40
2021/12/14 06:11:01;;;;;;;;;;;20.70;49.10;;;;;;6234769;28;19928;-41
2021/12/14 06:14:04;;;;;;;;;;;20.80;49.10;;;;;;6234910;28;19924;-42
2021/12/14 06:17:05;;;;;;;;;;;20.90;49.10;;;;;;6232720;28;19925;-42
2021/12/14 06:20:11;;;;;;;;;;;20.90;49.20;;;;;;6235630;28;19927;-40
2021/12/14 06:23:13;;;;;;;;;;;21.30;49.30;;;;;;6236582;28;19931;-40
2021/12/14 06:26:34;;;;;;;;;;;20.80;49.20;;;;;;6239550;28;19930;-41
2021/12/14 06:29:41;;;;;;;;;;;20.90;49.10;;;;;;6211617;28;19928;-41
2021/12/14 06:32:45;;;;;;;;;;;21.30;49.10;;;;;;6227093;28;19924;-41
2021/12/14 06:35:48;;;;;;;;;;;21.00;49.10;;;;;;6235334;28;20051;-40
2021/12/14 06:39:03;;;;;;;;;;;20.80;49.10;;;;;;6225539;28;20086;-41
2021/12/14 06:42:05;;;;;;;;;;;20.80;49.00;;;;;;6226906;28;20703;-42
2021/12/14 06:45:09;;;;;;;;;;;20.90;49.10;;;;;;6238006;28;21618;-40
2021/12/14 06:48:13;;;;;;;;;;;21.00;49.00;;;;;;6231611;28;19935;-42
2021/12/14 06:51:16;;;;;;;;;;;21.30;49.10;;;;;;6231371;28;20001;-42
2021/12/14 06:54:25;;;;;;;;;;;20.90;48.90;;;;;;6202176;28;19928;-40
2021/12/14 06:57:38;;;;;;;;;;;21.10;48.90;;;;;;6214660;28;19935;-39
2021/12/14 07:00:52;;;;;;;;;;;21.10;49.00;;;;;;6212321;28;19928;-41
2021/12/14 07:03:56;;;;;;;;;;;21.50;48.90;;;;;;6222546;28;19928;-41
2021/12/14 07:06:59;;;;;;;;;;;21.40;48.80;;;;;;6222705;28;19928;-40
2021/12/14 07:10:02;;;;;;;;;;;21.50;48.80;;;;;;6222261;28;19924;-41
2021/12/14 07:13:09;;;;;;;;;;;21.10;48.60;;;;;;6203009;28;20684;-41
2021/12/14 07:16:19;;;;;;;;;;;21.60;48.70;;;;;;6222315;28;20122;-41
2021/12/14 07:19:42;;;;;;;;;;;21.00;48.40;;;;;;6184080;28;19965;-42
2021/12/14 07:22:44;;;;;;;;;;;21.20;48.40;;;;;;6205702;28;21281;-40
2021/12/14 07:25:49;;;;;;;;;;;21.20;48.40;;;;;;6205528;28;19928;-42
2021/12/14 07:28:51;;;;;;;;;;;21.60;48.60;;;;;;6206937;28;19928;-41
2021/12/14 07:31:53;;;;;;;;;;;21.50;48.60;;;;;;6209459;28;21377;-40
2021/12/14 07:35:12;;;;;;;;;;;21.30;48.20;;;;;;6212875;28;22299;-40
2021/12/14 07:38:19;;;;;;;;;;;21.70;48.40;;;;;;6215247;28;22959;-41
2021/12/14 07:41:23;;;;;;;;;;;21.80;48.00;;;;;;6207953;28;21093;-41
2021/12/14 07:44:26;;;;;;;;;;;21.50;48.30;;;;;;6173751;28;20085;-41
2021/12/14 07:47:32;;;;;;;;;;;21.50;48.00;;;;;;6170185;28;25498;-40
2021/12/14 07:50:39;;;;;;;;;;;21.10;48.10;;;;;;6167566;28;19934;-42
2021/12/14 07:53:42;;;;;;;;;;;22.20;48.70;;;;;;6155741;28;20034;-41
2021/12/14 07:56:45;;;;;;;;;;;21.30;48.20;;;;;;6131068;28;20042;-41
2021/12/14 07:59:48;;;;;;;;;;;21.40;48.00;;;;;;6144014;28;20027;-41
2021/12/14 08:02:51;;;;;;;;;;;21.20;48.30;;;;;;6098381;28;19935;-43
2021/12/14 08:05:54;;;;;;;;;;;22.20;48.50;;;;;;6116947;28;21324;-43
2021/12/14 08:08:56;;;;;;;;;;;21.90;48.60;;;;;;6107446;28;19932;-42
2021/12/14 08:11:57;;;;;;;;;;;22.00;48.40;;;;;;6039683;28;20055;-44
2021/12/14 08:15:01;;;;;;;;;;;21.80;47.50;;;;;;6075606;28;20023;-42
2021/12/14 08:18:05;;;;;;;;;;;21.80;48.30;;;;;;6071701;28;19928;-45
2021/12/14 08:21:08;;;;;;;;;;;21.60;48.10;;;;;;6067728;28;21259;-43
2021/12/14 08:24:10;;;;;;;;;;;22.00;48.10;;;;;;6068190;28;23961;-43
2021/12/14 08:27:12;;;;;;;;;;;21.90;48.00;;;;;;6064711;28;20078;-43
2021/12/14 08:30:15;;;;;;;;;;;21.80;48.10;;;;;;6060996;28;20057;-43
2021/12/14 08:33:19;;;;;;;;;;;21.90;48.00;;;;;;6030350;28;19935;-43
2021/12/14 08:36:22;;;;;;;;;;;22.10;47.80;;;;;;6040945;28;19936;-43
2021/12/14 08:39:25;;;;;;;;;;;22.00;48.10;;;;;;6045241;28;21841;-43
2021/12/14 08:42:34;;;;;;;;;;;22.10;48.00;;;;;;6044161;28;20022;-41
2021/12/14 08:45:39;;;;;;;;;;;21.90;47.80;;;;;;6049935;28;19965;-41
2021/12/14 08:48:43;;;;;;;;;;;21.60;47.30;;;;;;6047074;28;19932;-42
2021/12/14 08:51:46;;;;;;;;;;;21.70;47.50;;;;;;5980321;28;19967;-43
2021/12/14 08:54:47;;;;;;;;;;;21.80;46.70;;;;;;6006907;28;19935;-40
2021/12/14 08:57:49;;;;;;;;;;;21.80;47.40;;;;;;6028662;28;19936;-41
2021/12/14 09:00:53;;;;;;;;;;;21.90;47.60;;;;;;6013449;28;19932;-42
2021/12/14 09:03:59;;;;;;;;;;;23.50;48.30;;;;;;6013580;28;19928;-44
2021/12/14 09:07:03;;;;;;;;;;;22.30;46.90;;;;;;6025562;28;19932;-42
2021/12/14 09:10:07;;;;;;;;;;;22.50;47.50;;;;;;6020531;28;19965;-44
2021/12/14 09:13:10;;;;;;;;;;;22.60;47.30;;;;;;6023742;28;20398;-39
2021/12/14 09:16:14;;;;;;;;;;;21.90;46.80;;;;;;6000761;28;19967;-41
2021/12/14 09:19:18;;;;;;;;;;;22.10;46.80;;;;;;5999459;28;19928;-41
2021/12/14 09:22:21;;;;;;;;;;;22.70;47.10;;;;;;6031135;28;20454;-41
2021/12/14 09:25:27;;;;;;;;;;;22.60;47.00;;;;;;6001111;28;20085;-40
2021/12/14 09:28:30;;;;;;;;;;;22.60;47.10;;;;;;6024791;28;19935;-41
2021/12/14 09:31:35;;;;;;;;;;;22.50;47.00;;;;;;6025026;28;22043;-42
2021/12/14 09:34:38;;;;;;;;;;;22.60;46.90;;;;;;6059557;28;19928;-40
2021/12/14 09:37:41;;;;;;;;;;;22.90;47.00;;;;;;6045822;28;21336;-39
2021/12/14 09:40:46;;;;;;;;;;;22.80;46.70;;;;;;6047202;28;21168;-40
2021/12/14 09:43:48;;;;;;;;;;;22.50;46.80;;;;;;6011837;28;20453;-42
2021/12/14 09:46:50;;;;;;;;;;;22.10;46.60;;;;;;6010854;28;19935;-40
2021/12/14 09:49:53;;;;;;;;;;;22.80;46.80;;;;;;6025003;28;19929;-41
2021/12/14 09:52:56;;;;;;;;;;;22.70;46.60;;;;;;5995023;28;19972;-41
2021/12/14 09:55:58;;;;;;;;;;;22.40;46.70;;;;;;6008933;28;19928;-40
2021/12/14 09:59:02;;;;;;;;;;;22.30;46.50;;;;;;6024409;28;19932;-42
2021/12/14 10:02:06;;;;;;;;;;;23.20;47.00;;;;;;5975441;28;19936;-40
2021/12/14 10:05:10;;;;;;;;;;;23.00;46.90;;;;;;5995814;28;19932;-40
2021/12/14 10:08:15;;;;;;;;;;;22.40;46.60;;;;;;5985958;28;19958;-38
2021/12/14 10:11:25;;;;;;;;;;;22.80;46.80;;;;;;6020994;28;19932;-42
2021/12/14 10:14:28;;;;;;;;;;;23.00;46.80;;;;;;6029181;28;20589;-40
2021/12/14 10:17:30;;;;;;;;;;;23.10;46.70;;;;;;6016043;28;20024;-39
2021/12/14 10:20:34;;;;;;;;;;;23.00;46.60;;;;;;6005537;28;19935;-42
2021/12/14 10:23:38;;;;;;;;;;;22.90;46.60;;;;;;5997257;28;20058;-41
2021/12/14 10:26:40;;;;;;;;;;;22.50;46.40;;;;;;6028515;28;19935;-39
2021/12/14 10:29:41;;;;;;;;;;;22.80;46.40;;;;;;6055871;28;19936;-40
2021/12/14 10:32:43;;;;;;;;;;;23.00;46.70;;;;;;6021085;28;19962;-41
2021/12/14 10:35:50;;;;;;;;;;;23.10;46.50;;;;;;6061830;28;19969;-41
2021/12/14 10:39:07;;;;;;;;;;;22.80;46.80;;;;;;6052360;28;23433;-39
2021/12/14 10:45:28;;;;;;;;;;;23.20;46.60;;;;;;6050013;28;20050;-39
2021/12/14 10:48:31;;;;;;;;;;;23.00;46.20;;;;;;6033282;28;19966;-51
2021/12/14 10:51:34;;;;;;;;;;;22.90;46.40;;;;;;6053724;28;19943;-47
2021/12/14 10:54:36;;;;;;;;;;;23.20;46.50;;;;;;6057469;28;22268;-45
2021/12/14 10:57:38;;;;;;;;;;;23.30;46.40;;;;;;6057438;28;20025;-42
2021/12/14 11:00:43;;;;;;;;;;;22.80;46.10;;;;;;6033433;28;19928;-44
2021/12/14 11:03:47;;;;;;;;;;;22.80;46.00;;;;;;6029414;28;19928;-44
2021/12/14 11:06:52;;;;;;;;;;;23.20;46.30;;;;;;6049259;28;20906;-43
2021/12/14 11:10:04;;;;;;;;;;;23.30;46.40;;;;;;6052552;28;19998;-42
2021/12/14 11:13:08;;;;;;;;;;;23.20;46.30;;;;;;6069266;28;20018;-43
2021/12/14 11:16:17;;;;;;;;;;;23.10;46.60;;;;;;6064239;28;21281;-43
2021/12/14 11:19:19;;;;;;;;;;;23.50;46.70;;;;;;6054500;28;19935;-43
2021/12/14 11:22:22;;;;;;;;;;;23.40;46.80;;;;;;6062854;28;21220;-43
2021/12/14 11:25:25;;;;;;;;;;;23.10;46.60;;;;;;6071484;28;21736;-43
2021/12/14 11:28:30;;;;;;;;;;;23.20;46.80;;;;;;6093943;28;19929;-42
2021/12/14 11:31:34;;;;;;;;;;;23.10;46.80;;;;;;6089098;28;21647;-43
2021/12/14 11:34:37;;;;;;;;;;;23.20;47.00;;;;;;6098561;28;19929;-42
2021/12/14 11:37:39;;;;;;;;;;;23.10;47.10;;;;;;6090657;28;20006;-43
2021/12/14 11:40:46;;;;;;;;;;;22.60;46.70;;;;;;6121548;28;19950;-44
2021/12/14 11:43:50;;;;;;;;;;;23.10;47.10;;;;;;6136363;28;19997;-43
2021/12/14 11:46:55;;;;;;;;;;;23.10;47.10;;;;;;6112894;28;19971;-43
2021/12/14 11:50:00;;;;;;;;;;;23.00;46.80;;;;;;6115798;28;19929;-44
2021/12/14 11:53:11;;;;;;;;;;;23.40;47.20;;;;;;6128546;28;19935;-42
2021/12/14 11:56:15;;;;;;;;;;;23.20;46.90;;;;;;6149288;28;19977;-42
2021/12/14 11:59:17;;;;;;;;;;;22.80;46.80;;;;;;6079865;28;20320;-41
2021/12/14 12:02:19;;;;;;;;;;;22.80;47.00;;;;;;6145366;28;19972;-44
2021/12/14 12:05:22;;;;;;;;;;;23.20;47.30;;;;;;6139870;28;19986;-43
2021/12/14 12:11:39;;;;;;;;;;;22.90;46.90;;;;;;6095867;28;19935;-44
2021/12/14 12:14:42;;;;;;;;;;;22.40;46.70;;;;;;6109555;28;19928;-42
2021/12/14 12:17:46;;;;;;;;;;;23.10;47.10;;;;;;6122038;28;22764;-42
2021/12/14 12:20:49;;;;;;;;;;;22.70;47.00;;;;;;6109042;28;20839;-43
2021/12/14 12:23:51;;;;;;;;;;;22.50;46.80;;;;;;6141191;28;19928;-43
2021/12/14 12:26:53;;;;;;;;;;;22.60;47.00;;;;;;6127122;28;20005;-41
2021/12/14 12:30:07;;;;;;;;;;;23.20;47.50;;;;;;6101396;28;19938;-42
2021/12/14 12:33:12;;;;;;;;;;;22.70;47.00;;;;;;6124408;28;22637;-39
2021/12/14 12:36:15;;;;;;;;;;;22.80;47.10;;;;;;6121422;28;19928;-39
2021/12/14 12:39:18;;;;;;;;;;;22.90;47.10;;;;;;6106727;28;19928;-43
2021/12/14 12:42:22;;;;;;;;;;;22.50;47.10;;;;;;6124579;28;21249;-41
2021/12/14 12:45:25;;;;;;;;;;;22.50;46.90;;;;;;6115158;28;19928;-43
2021/12/14 12:48:39;;;;;;;;;;;23.00;47.10;;;;;;6068070;28;19936;-40
2021/12/14 12:51:55;;;;;;;;;;;23.00;46.90;;;;;;6099713;28;19932;-45
2021/12/14 12:55:00;;;;;;;;;;;23.10;46.90;;;;;;6061251;28;20057;-39
2021/12/14 12:58:11;;;;;;;;;;;23.40;46.80;;;;;;6079857;28;20185;-40
2021/12/14 13:01:16;;;;;;;;;;;23.40;47.00;;;;;;6072154;28;19929;-39
2021/12/14 13:04:36;;;;;;;;;;;22.70;47.30;;;;;;6043149;28;21257;-39
2021/12/14 13:07:39;;;;;;;;;;;23.10;46.50;;;;;;6041999;28;19929;-43
2021/12/14 13:10:43;;;;;;;;;;;22.90;46.50;;;;;;6031689;28;19932;-40
2021/12/14 13:13:46;;;;;;;;;;;22.90;46.20;;;;;;6064484;28;20063;-40
2021/12/14 13:16:50;;;;;;;;;;;21.90;46.30;;;;;;6060354;28;19935;-37
2021/12/14 13:19:57;;;;;;;;;;;23.00;45.70;;;;;;6045399;28;19934;-41
2021/12/14 13:22:59;;;;;;;;;;;23.20;46.10;;;;;;6044409;28;19928;-40
2021/12/14 13:26:17;;;;;;;;;;;23.10;46.10;;;;;;6059057;28;19935;-40
2021/12/14 13:29:34;;;;;;;;;;;23.40;46.20;;;;;;6071392;28;20984;-42
2021/12/14 13:32:39;;;;;;;;;;;23.40;46.10;;;;;;6052738;28;19939;-40
2021/12/14 13:35:40;;;;;;;;;;;23.00;46.00;;;;;;6042891;28;19935;-42
2021/12/14 13:38:42;;;;;;;;;;;23.50;46.20;;;;;;6034696;28;20062;-43
2021/12/14 13:41:57;;;;;;;;;;;23.20;46.00;;;;;;6049835;28;20029;-40
2021/12/14 13:45:00;;;;;;;;;;;23.60;46.00;;;;;;6065566;28;19935;-41
2021/12/14 13:48:02;;;;;;;;;;;23.40;46.00;;;;;;6036527;28;19929;-46
2021/12/14 13:51:06;;;;;;;;;;;23.10;45.90;;;;;;6028202;28;20063;-40
2021/12/14 13:54:08;;;;;;;;;;;23.90;46.10;;;;;;6039828;28;19928;-43
2021/12/14 13:57:11;;;;;;;;;;;23.30;45.60;;;;;;6050389;28;21308;-42
2021/12/14 14:00:37;;;;;;;;;;;23.60;46.10;;;;;;6002196;28;20225;-42
2021/12/14 14:03:40;;;;;;;;;;;23.00;45.80;;;;;;5991048;28;20110;-41
2021/12/14 14:06:42;;;;;;;;;;;23.10;45.70;;;;;;5977096;28;19928;-41
2021/12/14 14:09:43;;;;;;;;;;;23.60;46.10;;;;;;6023810;28;19929;-40
2021/12/14 14:12:48;;;;;;;;;;;23.60;45.50;;;;;;6034986;28;19928;-41
2021/12/14 14:15:51;;;;;;;;;;;23.20;45.60;;;;;;6017665;28;19928;-41
2021/12/14 14:18:53;;;;;;;;;;;23.80;46.00;;;;;;6008207;28;19934;-39
2021/12/14 14:21:56;;;;;;;;;;;23.90;45.90;;;;;;6040498;28;19928;-42
2021/12/14 14:24:58;;;;;;;;;;;23.90;45.90;;;;;;6007081;28;20051;-41
2021/12/14 14:28:01;;;;;;;;;;;23.50;45.80;;;;;;6035017;28;19929;-39
2021/12/14 14:31:05;;;;;;;;;;;23.70;45.70;;;;;;6052575;28;19928;-48
2021/12/14 14:34:16;;;;;;;;;;;24.00;45.80;;;;;;6028383;28;19928;-40
2021/12/14 14:37:18;;;;;;;;;;;24.00;45.90;;;;;;6053622;28;19928;-41
2021/12/14 14:40:23;;;;;;;;;;;23.80;44.00;;;;;;6062319;28;19928;-44
2021/12/14 14:43:39;;;;;;;;;;;24.00;45.80;;;;;;6045361;28;19935;-42
2021/12/14 14:46:55;;;;;;;;;;;24.30;45.80;;;;;;6039936;28;19936;-43
2021/12/14 14:50:09;;;;;;;;;;;24.00;45.60;;;;;;6034669;28;19928;-41
2021/12/14 14:53:12;;;;;;;;;;;24.20;45.60;;;;;;6044148;28;19940;-43
2021/12/14 14:56:14;;;;;;;;;;;24.10;45.60;;;;;;6062968;28;19933;-44
2021/12/14 14:59:16;;;;;;;;;;;23.50;45.40;;;;;;6045302;28;21279;-43
2021/12/14 15:02:17;;;;;;;;;;;23.90;45.50;;;;;;6030782;28;20665;-42
2021/12/14 15:05:27;;;;;;;;;;;24.40;46.00;;;;;;6021988;28;19958;-44
2021/12/14 15:08:32;;;;;;;;;;;23.60;45.40;;;;;;6030946;28;19935;-43
2021/12/14 15:11:36;;;;;;;;;;;24.10;45.70;;;;;;6011774;28;19932;-43
2021/12/14 15:14:40;;;;;;;;;;;23.90;45.30;;;;;;6060482;28;19935;-42
2021/12/14 15:17:44;;;;;;;;;;;23.50;45.10;;;;;;6071068;28;19932;-42
2021/12/14 15:20:46;;;;;;;;;;;23.90;45.40;;;;;;6064936;28;20046;-45
2021/12/14 15:23:48;;;;;;;;;;;23.70;45.40;;;;;;6050715;28;19989;-43
2021/12/14 15:27:00;;;;;;;;;;;23.70;45.30;;;;;;6083830;28;21350;-45
2021/12/14 15:30:14;;;;;;;;;;;24.00;43.80;;;;;;6063139;28;19935;-43
2021/12/14 15:33:18;;;;;;;;;;;24.10;45.40;;;;;;6067083;28;19928;-42
2021/12/14 15:36:24;;;;;;;;;;;23.70;44.90;;;;;;6100307;28;21407;-42
2021/12/14 15:39:36;;;;;;;;;;;24.10;45.30;;;;;;6090407;28;20653;-45
2021/12/14 15:42:38;;;;;;;;;;;23.90;45.30;;;;;;6074001;28;19970;-40
2021/12/14 15:45:41;;;;;;;;;;;24.00;45.40;;;;;;6076995;28;19928;-42
2021/12/14 15:48:44;;;;;;;;;;;23.60;45.20;;;;;;6062997;28;19935;-44
2021/12/14 15:51:47;;;;;;;;;;;23.80;45.40;;;;;;6015285;28;19935;-44
2021/12/14 15:54:53;;;;;;;;;;;24.10;45.50;;;;;;6065615;28;19929;-40
2021/12/14 15:57:56;;;;;;;;;;;23.80;45.10;;;;;;6068239;28;20007;-40
2021/12/14 16:00:59;;;;;;;;;;;24.30;45.40;;;;;;6067676;28;19936;-42
2021/12/14 16:04:03;;;;;;;;;;;24.20;45.10;;;;;;6049285;28;20905;-41
2021/12/14 16:07:05;;;;;;;;;;;23.90;45.30;;;;;;6064100;28;19928;-42
2021/12/14 16:10:17;;;;;;;;;;;24.00;45.30;;;;;;6065153;28;20017;-45
2021/12/14 16:16:36;;;;;;;;;;;24.00;45.40;;;;;;6098443;28;21636;-43
2021/12/14 16:19:38;;;;;;;;;;;23.90;45.30;;;;;;6091289;28;20054;-44
2021/12/14 16:22:40;;;;;;;;;;;24.60;46.40;;;;;;6089791;28;19928;-42
2021/12/14 16:25:42;;;;;;;;;;;24.10;45.30;;;;;;6070857;28;19928;-43
2021/12/14 16:28:45;;;;;;;;;;;24.10;45.50;;;;;;6083655;28;20532;-43
2021/12/14 16:31:47;;;;;;;;;;;24.00;45.30;;;;;;6097297;28;19928;-42
2021/12/14 16:34:49;;;;;;;;;;;24.40;45.60;;;;;;6110531;28;21246;-44
2021/12/14 16:37:51;;;;;;;;;;;24.00;45.40;;;;;;6083839;28;20913;-43
2021/12/14 16:40:53;;;;;;;;;;;23.90;45.40;;;;;;6087075;28;21178;-43
2021/12/14 16:43:56;;;;;;;;;;;24.20;45.90;;;;;;6099920;28;19928;-44
2021/12/14 16:46:59;;;;;;;;;;;24.20;45.80;;;;;;6111860;28;19935;-44
2021/12/14 16:50:02;;;;;;;;;;;24.20;45.80;;;;;;6090304;28;19928;-43
2021/12/14 16:53:05;;;;;;;;;;;23.60;45.40;;;;;;6101855;28;20262;-43
2021/12/14 16:56:08;;;;;;;;;;;23.80;45.60;;;;;;6135102;28;19929;-42
2021/12/14 16:59:11;;;;;;;;;;;23.50;45.50;;;;;;6113404;28;19928;-42
2021/12/14 17:02:14;;;;;;;;;;;23.70;45.50;;;;;;6138086;28;19935;-42
2021/12/14 17:05:19;;;;;;;;;;;24.00;45.70;;;;;;6121969;28;19928;-44
2021/12/14 17:08:24;;;;;;;;;;;24.10;45.70;;;;;;6126402;28;19928;-42
2021/12/14 17:11:25;;;;;;;;;;;23.70;45.50;;;;;;6099999;28;21876;-42
2021/12/14 17:14:30;;;;;;;;;;;24.10;45.70;;;;;;6137684;28;19928;-42
2021/12/14 17:17:35;;;;;;;;;;;23.30;45.20;;;;;;6144782;28;19936;-41
2021/12/14 17:20:39;;;;;;;;;;;23.40;45.40;;;;;;6153039;28;20780;-40
2021/12/14 17:23:41;;;;;;;;;;;24.50;45.90;;;;;;6155409;28;20953;-40
2021/12/14 17:26:45;;;;;;;;;;;23.70;45.60;;;;;;6174381;28;19929;-41
2021/12/14 17:29:48;;;;;;;;;;;23.40;45.50;;;;;;6159719;28;21001;-39
2021/12/14 17:32:50;;;;;;;;;;;23.70;45.60;;;;;;6164750;28;19929;-40
2021/12/14 17:35:52;;;;;;;;;;;23.30;45.50;;;;;;6156550;28;21432;-39
2021/12/14 17:38:55;;;;;;;;;;;23.60;45.90;;;;;;6189037;28;20744;-40
2021/12/14 17:41:57;;;;;;;;;;;23.30;45.70;;;;;;6189744;28;20017;-40
2021/12/14 17:45:05;;;;;;;;;;;23.70;45.80;;;;;;6180979;28;19929;-41
2021/12/14 17:48:07;;;;;;;;;;;23.50;45.80;;;;;;6184876;28;20180;-39
2021/12/14 17:51:11;;;;;;;;;;;23.60;45.90;;;;;;6192935;28;19935;-39
2021/12/14 17:54:23;;;;;;;;;;;23.20;46.10;;;;;;6187343;28;19928;-41
2021/12/14 17:57:25;;;;;;;;;;;23.30;46.00;;;;;;6195940;28;20826;-40
2021/12/14 18:00:28;;;;;;;;;;;24.00;45.90;;;;;;6203642;28;19928;-40
2021/12/14 18:03:31;;;;;;;;;;;23.40;46.00;;;;;;6199527;28;19920;-40
2021/12/14 18:06:33;;;;;;;;;;;23.00;45.90;;;;;;6183611;28;19934;-42
2021/12/14 18:09:35;;;;;;;;;;;23.40;46.30;;;;;;6199969;28;20700;-42
2021/12/14 18:12:48;;;;;;;;;;;23.00;46.10;;;;;;6181609;28;20025;-39
2021/12/14 18:15:54;;;;;;;;;;;23.40;46.20;;;;;;6213568;28;19934;-42
2021/12/14 18:19:04;;;;;;;;;;;23.30;46.20;;;;;;6214250;28;19932;-40
2021/12/14 18:22:08;;;;;;;;;;;23.40;46.40;;;;;;6214072;28;20275;-42
2021/12/14 18:25:10;;;;;;;;;;;22.20;46.00;;;;;;6210512;28;20700;-41